NBA YMAV-YMML
Flight info
| Callsign | NBA |
|---|---|
| Flight time | N/A |
| Altitude | 7000 |
| Route | ML |
| Aircraft | B737/M-SDE2E3FGHIRWXY/LB1 |
Departure
| Time | 2026-04-22 09:19 |
|---|---|
| Airport | Melbourne Avalon International Airport (YMAV) |
Arrival
| Time | N/A |
|---|---|
| Airport | Melbourne Airport (YMML) |
| Time | Latitude | Longitude | Altitude | Speed | Heading |
|---|---|---|---|---|---|
| 2026-04-22 08:57 | -38.02927 | 144.47516 | 35 ft | 0 kts | 187° |
| 2026-04-22 09:14 | -38.05323 | 144.46718 | 35 ft | 0 kts | 187° |
| 2026-04-22 09:14 | -38.05324 | 144.46718 | 35 ft | 0 kts | 187° |
| 2026-04-22 09:14 | -38.05340 | 144.46714 | 34 ft | 3 kts | 189° |
| 2026-04-22 09:14 | -38.05361 | 144.46709 | 35 ft | 3 kts | 193° |
| 2026-04-22 09:15 | -38.05382 | 144.46701 | 34 ft | 3 kts | 199° |
| 2026-04-22 09:15 | -38.05400 | 144.46691 | 35 ft | 3 kts | 206° |
| 2026-04-22 09:15 | -38.05417 | 144.46676 | 35 ft | 3 kts | 219° |
| 2026-04-22 09:15 | -38.05430 | 144.46658 | 35 ft | 3 kts | 232° |
| 2026-04-22 09:16 | -38.05431 | 144.46657 | 35 ft | 0 kts | 233° |
| 2026-04-22 09:17 | -38.05435 | 144.46650 | 35 ft | 3 kts | 237° |
| 2026-04-22 09:17 | -38.05446 | 144.46604 | 35 ft | 8 kts | 265° |
| 2026-04-22 09:17 | -38.05426 | 144.46524 | 35 ft | 11 kts | 303° |
| 2026-04-22 09:18 | -38.05342 | 144.46500 | 36 ft | 15 kts | 5° |
| 2026-04-22 09:18 | -38.05190 | 144.46532 | 36 ft | 45 kts | 6° |
| 2026-04-22 09:18 | -38.04614 | 144.46619 | 35 ft | 120 kts | 7° |
| 2026-04-22 09:18 | -38.03578 | 144.46775 | 143 ft | 171 kts | 5° |
| 2026-04-22 09:19 | -38.02404 | 144.46942 | 987 ft | 165 kts | 5° |
| 2026-04-22 09:19 | -38.01291 | 144.47294 | 1818 ft | 172 kts | 28° |
| 2026-04-22 09:19 | -38.00215 | 144.48147 | 2277 ft | 196 kts | 34° |
| 2026-04-22 09:19 | -37.99046 | 144.49283 | 2512 ft | 224 kts | 31° |
| 2026-04-22 09:20 | -37.97664 | 144.50353 | 2905 ft | 239 kts | 30° |
| 2026-04-22 09:20 | -37.96238 | 144.51482 | 3486 ft | 244 kts | 32° |
| 2026-04-22 09:20 | -37.94818 | 144.52633 | 4070 ft | 247 kts | 31° |
| 2026-04-22 09:20 | -37.93349 | 144.53830 | 4593 ft | 258 kts | 32° |
| 2026-04-22 09:21 | -37.91815 | 144.55123 | 4935 ft | 270 kts | 39° |
| 2026-04-22 09:21 | -37.90749 | 144.57055 | 4952 ft | 273 kts | 72° |
| 2026-04-22 09:21 | -37.90250 | 144.59403 | 5252 ft | 282 kts | 75° |
| 2026-04-22 09:21 | -37.89741 | 144.61855 | 5847 ft | 289 kts | 74° |
| 2026-04-22 09:22 | -37.89207 | 144.64265 | 6700 ft | 285 kts | 73° |
| 2026-04-22 09:22 | -37.88640 | 144.66674 | 6973 ft | 285 kts | 72° |
| 2026-04-22 09:22 | -37.88053 | 144.69064 | 6985 ft | 284 kts | 72° |
| 2026-04-22 09:22 | -37.87454 | 144.71429 | 6988 ft | 279 kts | 72° |
| 2026-04-22 09:23 | -37.86865 | 144.73724 | 6865 ft | 268 kts | 71° |
| 2026-04-22 09:23 | -37.86280 | 144.75984 | 6261 ft | 274 kts | 71° |
| 2026-04-22 09:23 | -37.85679 | 144.78287 | 5655 ft | 278 kts | 71° |
| 2026-04-22 09:23 | -37.85067 | 144.80632 | 5054 ft | 283 kts | 71° |
| 2026-04-22 09:24 | -37.84430 | 144.83002 | 4436 ft | 286 kts | 66° |
| 2026-04-22 09:24 | -37.83286 | 144.85040 | 3792 ft | 287 kts | 37° |
| 2026-04-22 09:24 | -37.81520 | 144.86119 | 3371 ft | 278 kts | 10° |
| 2026-04-22 09:24 | -37.79610 | 144.86285 | 2679 ft | 281 kts | 352° |
| 2026-04-22 09:25 | -37.77692 | 144.85935 | 2192 ft | 278 kts | 349° |
| 2026-04-22 09:25 | -37.75812 | 144.85542 | 1891 ft | 267 kts | 349° |
| 2026-04-22 09:25 | -37.74021 | 144.85158 | 1813 ft | 255 kts | 349° |
| 2026-04-22 09:25 | -37.72357 | 144.84722 | 1693 ft | 234 kts | 334° |
| 2026-04-22 09:26 | -37.71299 | 144.83440 | 1842 ft | 193 kts | 289° |
| 2026-04-22 09:26 | -37.71001 | 144.81875 | 2217 ft | 187 kts | 287° |
| 2026-04-22 09:26 | -37.70361 | 144.80357 | 2457 ft | 204 kts | 294° |
| 2026-04-22 09:26 | -37.69958 | 144.78547 | 2642 ft | 225 kts | 281° |
| 2026-04-22 09:27 | -37.69628 | 144.76534 | 2950 ft | 240 kts | 281° |
| 2026-04-22 09:27 | -37.69279 | 144.74448 | 3480 ft | 245 kts | 282° |
| 2026-04-22 09:27 | -37.68924 | 144.72330 | 3968 ft | 245 kts | 282° |
| 2026-04-22 09:27 | -37.68576 | 144.70261 | 3948 ft | 240 kts | 280° |
| 2026-04-22 09:28 | -37.68657 | 144.68150 | 3997 ft | 247 kts | 247° |
| 2026-04-22 09:28 | -37.69728 | 144.66462 | 4023 ft | 253 kts | 215° |
| 2026-04-22 09:28 | -37.71200 | 144.65303 | 4016 ft | 252 kts | 212° |
| 2026-04-22 09:28 | -37.72703 | 144.64169 | 4006 ft | 251 kts | 212° |
| 2026-04-22 09:29 | -37.74206 | 144.63043 | 4023 ft | 253 kts | 212° |
| 2026-04-22 09:29 | -37.75417 | 144.62137 | 4020 ft | 256 kts | 212° |
| 2026-04-22 09:29 | -37.76687 | 144.61187 | 4021 ft | 257 kts | 212° |
| 2026-04-22 09:29 | -37.78216 | 144.60044 | 4004 ft | 254 kts | 212° |
| 2026-04-22 09:30 | -37.79236 | 144.59284 | 3996 ft | 251 kts | 212° |
| 2026-04-22 09:30 | -37.81229 | 144.57827 | 3998 ft | 249 kts | 205° |
| 2026-04-22 09:30 | -37.82918 | 144.57518 | 4011 ft | 249 kts | 168° |
| 2026-04-22 09:30 | -37.83963 | 144.58059 | 3990 ft | 243 kts | 143° |
| 2026-04-22 09:31 | -37.84900 | 144.59688 | 4003 ft | 223 kts | 103° |
| 2026-04-22 09:31 | -37.85041 | 144.61552 | 4007 ft | 203 kts | 92° |
| 2026-04-22 09:31 | -37.85091 | 144.63313 | 4030 ft | 200 kts | 92° |
| 2026-04-22 09:31 | -37.85136 | 144.65077 | 4013 ft | 200 kts | 92° |
| 2026-04-22 09:32 | -37.85179 | 144.66835 | 4008 ft | 201 kts | 92° |
| 2026-04-22 09:32 | -37.85221 | 144.68597 | 3998 ft | 200 kts | 91° |
| 2026-04-22 09:32 | -37.85262 | 144.70350 | 4012 ft | 199 kts | 92° |
| 2026-04-22 09:32 | -37.85302 | 144.72098 | 4010 ft | 199 kts | 92° |
| 2026-04-22 09:33 | -37.85342 | 144.73851 | 4017 ft | 200 kts | 91° |
| 2026-04-22 09:33 | -37.85383 | 144.75612 | 4007 ft | 201 kts | 91° |
| 2026-04-22 09:33 | -37.85229 | 144.77350 | 4009 ft | 199 kts | 73° |
| 2026-04-22 09:33 | -37.84891 | 144.79025 | 4008 ft | 199 kts | 76° |
| 2026-04-22 09:34 | -37.84575 | 144.80744 | 3897 ft | 204 kts | 76° |
| 2026-04-22 09:34 | -37.84249 | 144.82496 | 3650 ft | 203 kts | 76° |
| 2026-04-22 09:34 | -37.83928 | 144.84212 | 3399 ft | 198 kts | 76° |
| 2026-04-22 09:35 | -37.82165 | 144.86555 | 3134 ft | 212 kts | 2° |
| 2026-04-22 09:35 | -37.80664 | 144.86465 | 2853 ft | 227 kts | 350° |
| 2026-04-22 09:35 | -37.79092 | 144.86149 | 2463 ft | 227 kts | 349° |
| 2026-04-22 09:35 | -37.77555 | 144.85831 | 2218 ft | 213 kts | 349° |
| 2026-04-22 09:36 | -37.76172 | 144.85558 | 2104 ft | 192 kts | 349° |
| 2026-04-22 09:36 | -37.74915 | 144.85310 | 1940 ft | 173 kts | 349° |